createdAt,value
2018-07-10T17:40:03.824Z,100809.00
2018-07-10T17:46:47.554Z,100803.00
2018-07-10T17:49:58.050Z,100820.00
2018-07-10T17:53:10.273Z,100831.00
2018-07-10T17:56:23.211Z,100845.00
2018-07-10T17:59:35.295Z,100851.00
2018-07-10T18:02:45.806Z,100842.00
2018-07-10T18:05:56.702Z,100842.00
2018-07-10T18:09:07.621Z,100847.00
2018-07-10T18:12:19.555Z,100841.00
2018-07-10T18:15:35.350Z,100853.00
2018-07-10T18:18:47.080Z,100841.00
2018-07-10T18:21:58.419Z,100850.00
2018-07-10T18:25:09.634Z,100859.00
2018-07-10T18:28:22.699Z,100864.00
2018-07-10T18:31:34.496Z,100861.00
2018-07-10T18:34:45.858Z,100859.00
2018-07-10T18:37:58.364Z,100867.00
2018-07-10T18:41:10.164Z,100885.00
2018-07-10T18:44:22.710Z,100880.00
2018-07-10T18:47:33.177Z,100881.00
2018-07-10T18:50:43.880Z,100900.00
2018-07-10T18:53:54.935Z,100909.00
2018-07-10T18:57:15.854Z,100916.00
2018-07-10T19:00:40.646Z,100915.00
2018-07-10T19:03:51.498Z,100928.00
2018-07-10T19:07:02.985Z,100933.00
2018-07-10T19:10:13.664Z,100937.00
2018-07-10T19:13:26.726Z,100947.00
2018-07-10T19:16:37.767Z,100947.00
2018-07-10T19:19:54.855Z,100953.00
2018-07-10T19:23:09.992Z,100959.00
2018-07-10T19:26:24.960Z,100963.00
2018-07-10T19:29:49.781Z,100966.00
2018-07-10T19:33:01.562Z,100969.00
2018-07-10T19:36:12.839Z,100985.00
2018-07-10T19:39:24.480Z,100990.00
2018-07-10T19:42:37.335Z,100988.00
2018-07-10T19:45:48.296Z,100994.00
2018-07-10T19:49:00.278Z,100994.00
2018-07-10T19:52:11.993Z,101008.00
2018-07-10T19:55:25.126Z,101004.00
2018-07-10T19:58:45.129Z,101004.00
2018-07-10T20:02:00.558Z,101005.00
2018-07-10T20:05:16.948Z,101009.00
2018-07-10T20:08:29.894Z,101019.00
2018-07-10T20:12:13.872Z,101019.00
2018-07-10T20:15:32.751Z,101024.00
2018-07-10T20:18:55.343Z,101026.00
2018-07-10T20:22:18.542Z,101026.00
2018-07-10T20:25:40.055Z,101031.00
2018-07-10T20:28:57.539Z,101032.00
2018-07-10T20:32:08.121Z,101040.00
2018-07-10T20:35:27.696Z,101041.00
2018-07-10T20:38:38.489Z,101042.00
2018-07-10T20:41:48.955Z,101046.00
2018-07-10T20:45:03.537Z,101048.00
2018-07-10T20:48:21.775Z,101045.00
2018-07-10T20:52:05.866Z,101045.00
2018-07-10T20:55:16.462Z,101047.00
2018-07-10T20:58:35.904Z,101047.00
2018-07-10T21:01:49.482Z,101047.00
2018-07-10T21:05:12.795Z,101047.00
2018-07-10T21:10:38.644Z,101050.00
2018-07-10T21:14:01.053Z,101052.00
2018-07-10T21:17:16.080Z,101046.00
2018-07-10T21:20:47.725Z,101048.00
2018-07-10T21:24:09.767Z,101052.00
2018-07-10T21:27:30.442Z,101045.00
2018-07-10T21:30:48.428Z,101049.00
2018-07-10T21:36:13.308Z,101053.00
2018-07-10T21:39:52.765Z,101059.00
2018-07-10T21:43:26.843Z,101073.00
2018-07-10T21:46:45.142Z,101078.00
2018-07-10T21:49:58.785Z,101075.00
2018-07-10T21:53:09.517Z,101077.00
2018-07-10T21:56:20.146Z,101087.00
2018-07-10T21:59:31.805Z,101094.00
2018-07-10T22:02:42.653Z,101091.00
2018-07-10T22:05:53.254Z,101093.00
2018-07-10T22:09:04.820Z,101097.00
2018-07-10T22:12:17.896Z,101104.00
2018-07-10T22:15:28.219Z,101113.00
2018-07-10T22:18:38.902Z,101117.00
2018-07-10T22:21:49.756Z,101119.00
2018-07-10T22:25:04.614Z,101121.00
2018-07-10T22:28:14.977Z,101124.00
2018-07-10T22:31:31.731Z,101127.00
2018-07-10T22:34:43.775Z,101129.00
2018-07-10T22:37:54.675Z,101130.00
2018-07-10T22:41:05.070Z,101139.00
2018-07-10T22:44:15.943Z,101141.00
2018-07-10T22:47:37.300Z,101147.00
2018-07-10T22:50:48.072Z,101143.00
2018-07-10T22:53:59.700Z,101134.00
2018-07-10T22:57:11.595Z,101142.00
2018-07-10T23:00:34.540Z,101148.00
2018-07-10T23:03:45.089Z,101150.00
2018-07-10T23:06:55.852Z,101151.00
2018-07-10T23:10:07.259Z,101156.00
2018-07-10T23:13:18.367Z,101154.00
2018-07-10T23:16:29.229Z,101156.00
2018-07-10T23:19:40.352Z,101156.00
2018-07-10T23:22:55.322Z,101158.00
2018-07-10T23:26:06.257Z,101154.00
2018-07-10T23:29:21.288Z,101148.00
2018-07-10T23:32:31.780Z,101143.00
2018-07-10T23:35:50.032Z,101143.00
2018-07-10T23:39:09.185Z,101145.00
2018-07-10T23:42:32.027Z,101140.00
2018-07-10T23:45:45.792Z,101142.00
2018-07-10T23:49:00.486Z,101136.00
2018-07-10T23:52:51.115Z,101135.00
2018-07-10T23:56:02.277Z,101132.00
2018-07-10T23:59:13.276Z,101130.00
